sensor_id;sensor_type;location;lat;lon;timestamp;temperature;humidity
54178;DHT22;40085;53.004;6.770;2023-03-20T00:01:20;11.00;99.90
54178;DHT22;40085;53.004;6.770;2023-03-20T00:03:48;7.80;99.90
54178;DHT22;40085;53.004;6.770;2023-03-20T00:06:15;10.60;99.90
54178;DHT22;40085;53.004;6.770;2023-03-20T00:08:46;8.10;99.90
54178;DHT22;40085;53.004;6.770;2023-03-20T00:11:30;8.50;99.90
54178;DHT22;40085;53.004;6.770;2023-03-20T00:14:04;10.20;99.90
54178;DHT22;40085;53.004;6.770;2023-03-20T00:16:36;10.60;99.90
54178;DHT22;40085;53.004;6.770;2023-03-20T00:19:03;8.00;99.90
54178;DHT22;40085;53.004;6.770;2023-03-20T00:21:29;10.80;99.90
54178;DHT22;40085;53.004;6.770;2023-03-20T00:23:56;8.00;99.90
54178;DHT22;40085;53.004;6.770;2023-03-20T00:26:26;10.50;99.90
54178;DHT22;40085;53.004;6.770;2023-03-20T00:28:52;9.40;99.90
54178;DHT22;40085;53.004;6.770;2023-03-20T00:31:28;10.40;99.90
54178;DHT22;40085;53.004;6.770;2023-03-20T00:34:00;8.00;99.90
54178;DHT22;40085;53.004;6.770;2023-03-20T00:36:27;9.90;99.90
54178;DHT22;40085;53.004;6.770;2023-03-20T00:38:53;7.80;99.90
54178;DHT22;40085;53.004;6.770;2023-03-20T00:41:40;10.70;99.90
54178;DHT22;40085;53.004;6.770;2023-03-20T00:47:05;9.90;99.90
54178;DHT22;40085;53.004;6.770;2023-03-20T00:49:35;10.30;99.90
54178;DHT22;40085;53.004;6.770;2023-03-20T00:52:03;7.60;99.90
54178;DHT22;40085;53.004;6.770;2023-03-20T00:54:30;8.00;99.90
54178;DHT22;40085;53.004;6.770;2023-03-20T00:56:56;7.90;99.90
54178;DHT22;40085;53.004;6.770;2023-03-20T00:59:27;10.40;99.90
54178;DHT22;40085;53.004;6.770;2023-03-20T01:01:54;8.40;99.90
54178;DHT22;40085;53.004;6.770;2023-03-20T01:04:20;10.50;99.90
54178;DHT22;40085;53.004;6.770;2023-03-20T01:06:46;8.00;99.90
54178;DHT22;40085;53.004;6.770;2023-03-20T01:09:12;7.80;99.90
54178;DHT22;40085;53.004;6.770;2023-03-20T01:11:39;8.40;99.90
54178;DHT22;40085;53.004;6.770;2023-03-20T01:14:12;8.20;99.90
54178;DHT22;40085;53.004;6.770;2023-03-20T01:16:39;7.70;99.90
54178;DHT22;40085;53.004;6.770;2023-03-20T01:19:05;7.80;99.90
54178;DHT22;40085;53.004;6.770;2023-03-20T01:21:32;7.50;99.90
54178;DHT22;40085;53.004;6.770;2023-03-20T01:23:57;8.00;99.90
54178;DHT22;40085;53.004;6.770;2023-03-20T01:26:33;7.80;99.90
54178;DHT22;40085;53.004;6.770;2023-03-20T01:29:00;7.90;99.90
54178;DHT22;40085;53.004;6.770;2023-03-20T01:31:26;7.60;99.90
54178;DHT22;40085;53.004;6.770;2023-03-20T01:33:51;7.80;99.90
54178;DHT22;40085;53.004;6.770;2023-03-20T01:36:21;9.80;99.90
54178;DHT22;40085;53.004;6.770;2023-03-20T01:38:54;9.90;99.90
54178;DHT22;40085;53.004;6.770;2023-03-20T01:41:23;7.80;99.90
54178;DHT22;40085;53.004;6.770;2023-03-20T01:43:49;8.20;99.90
54178;DHT22;40085;53.004;6.770;2023-03-20T01:46:26;7.80;99.90
54178;DHT22;40085;53.004;6.770;2023-03-20T01:51:26;9.50;99.90
54178;DHT22;40085;53.004;6.770;2023-03-20T01:53:58;10.60;99.90
54178;DHT22;40085;53.004;6.770;2023-03-20T01:56:24;10.40;99.90
54178;DHT22;40085;53.004;6.770;2023-03-20T01:58:59;8.20;99.90
54178;DHT22;40085;53.004;6.770;2023-03-20T02:01:28;10.60;99.90
54178;DHT22;40085;53.004;6.770;2023-03-20T02:03:55;8.00;99.90
54178;DHT22;40085;53.004;6.770;2023-03-20T02:06:23;10.70;99.90
54178;DHT22;40085;53.004;6.770;2023-03-20T02:08:51;7.70;99.90
54178;DHT22;40085;53.004;6.770;2023-03-20T02:11:20;9.30;99.90
54178;DHT22;40085;53.004;6.770;2023-03-20T02:13:52;7.90;99.90
54178;DHT22;40085;53.004;6.770;2023-03-20T02:16:18;10.30;99.90
54178;DHT22;40085;53.004;6.770;2023-03-20T02:18:47;9.50;99.90
54178;DHT22;40085;53.004;6.770;2023-03-20T02:24:43;7.90;99.90
54178;DHT22;40085;53.004;6.770;2023-03-20T02:46:17;7.90;99.90
54178;DHT22;40085;53.004;6.770;2023-03-20T02:49:28;7.90;99.90
54178;DHT22;40085;53.004;6.770;2023-03-20T02:54:37;7.80;99.90
54178;DHT22;40085;53.004;6.770;2023-03-20T02:57:11;7.80;99.90
54178;DHT22;40085;53.004;6.770;2023-03-20T03:02:17;7.80;99.90
54178;DHT22;40085;53.004;6.770;2023-03-20T03:04:51;7.90;99.90
54178;DHT22;40085;53.004;6.770;2023-03-20T03:07:22;7.90;99.90
54178;DHT22;40085;53.004;6.770;2023-03-20T03:09:55;7.80;99.90
54178;DHT22;40085;53.004;6.770;2023-03-20T03:12:28;7.80;99.90
54178;DHT22;40085;53.004;6.770;2023-03-20T03:14:59;7.80;99.90
54178;DHT22;40085;53.004;6.770;2023-03-20T03:17:28;7.80;99.90
54178;DHT22;40085;53.004;6.770;2023-03-20T03:19:58;7.90;99.90
54178;DHT22;40085;53.004;6.770;2023-03-20T03:22:25;7.90;99.90
54178;DHT22;40085;53.004;6.770;2023-03-20T03:24:52;7.90;99.90
54178;DHT22;40085;53.004;6.770;2023-03-20T03:27:25;7.80;99.90
54178;DHT22;40085;53.004;6.770;2023-03-20T03:29:57;7.90;99.90
54178;DHT22;40085;53.004;6.770;2023-03-20T03:32:32;7.80;99.90
54178;DHT22;40085;53.004;6.770;2023-03-20T03:35:00;7.80;99.90
54178;DHT22;40085;53.004;6.770;2023-03-20T03:37:49;7.80;99.90
54178;DHT22;40085;53.004;6.770;2023-03-20T03:40:31;7.90;99.90
54178;DHT22;40085;53.004;6.770;2023-03-20T03:43:13;7.80;99.90
54178;DHT22;40085;53.004;6.770;2023-03-20T03:46:49;7.80;99.90
54178;DHT22;40085;53.004;6.770;2023-03-20T03:48:46;7.80;99.90
54178;DHT22;40085;53.004;6.770;2023-03-20T03:51:16;9.70;99.90
54178;DHT22;40085;53.004;6.770;2023-03-20T03:53:51;7.80;99.90
54178;DHT22;40085;53.004;6.770;2023-03-20T03:56:22;7.90;99.90
54178;DHT22;40085;53.004;6.770;2023-03-20T03:58:51;7.90;99.90
54178;DHT22;40085;53.004;6.770;2023-03-20T04:01:19;7.90;99.90
54178;DHT22;40085;53.004;6.770;2023-03-20T04:03:50;8.30;99.90
54178;DHT22;40085;53.004;6.770;2023-03-20T04:06:17;7.90;99.90
54178;DHT22;40085;53.004;6.770;2023-03-20T04:08:43;7.90;99.90
54178;DHT22;40085;53.004;6.770;2023-03-20T04:11:16;7.90;99.90
54178;DHT22;40085;53.004;6.770;2023-03-20T04:13:44;7.90;99.90
54178;DHT22;40085;53.004;6.770;2023-03-20T04:16:12;7.90;99.90
54178;DHT22;40085;53.004;6.770;2023-03-20T04:18:39;7.90;99.90
54178;DHT22;40085;53.004;6.770;2023-03-20T04:21:04;7.90;99.90
54178;DHT22;40085;53.004;6.770;2023-03-20T04:23:31;7.90;99.90
54178;DHT22;40085;53.004;6.770;2023-03-20T04:25:57;7.90;99.90
54178;DHT22;40085;53.004;6.770;2023-03-20T04:28:23;7.90;99.90
54178;DHT22;40085;53.004;6.770;2023-03-20T04:30:53;7.90;99.90
54178;DHT22;40085;53.004;6.770;2023-03-20T04:33:19;7.90;99.90
54178;DHT22;40085;53.004;6.770;2023-03-20T04:35:45;8.50;99.90
54178;DHT22;40085;53.004;6.770;2023-03-20T04:38:11;7.90;99.90
54178;DHT22;40085;53.004;6.770;2023-03-20T04:40:37;7.90;99.90
54178;DHT22;40085;53.004;6.770;2023-03-20T04:43:02;7.80;99.90
54178;DHT22;40085;53.004;6.770;2023-03-20T04:45:28;7.90;99.90
54178;DHT22;40085;53.004;6.770;2023-03-20T04:47:53;7.80;99.90
54178;DHT22;40085;53.004;6.770;2023-03-20T04:50:19;7.80;99.90
54178;DHT22;40085;53.004;6.770;2023-03-20T04:52:45;7.80;99.90
54178;DHT22;40085;53.004;6.770;2023-03-20T04:55:10;7.80;99.90
54178;DHT22;40085;53.004;6.770;2023-03-20T04:57:36;7.80;99.90
54178;DHT22;40085;53.004;6.770;2023-03-20T05:00:02;7.80;99.90
54178;DHT22;40085;53.004;6.770;2023-03-20T05:02:28;7.80;99.90
54178;DHT22;40085;53.004;6.770;2023-03-20T05:04:54;7.80;99.90
54178;DHT22;40085;53.004;6.770;2023-03-20T05:07:20;8.60;99.40
54178;DHT22;40085;53.004;6.770;2023-03-20T05:09:46;7.80;95.60
54178;DHT22;40085;53.004;6.770;2023-03-20T05:12:11;7.80;93.70
54178;DHT22;40085;53.004;6.770;2023-03-20T05:14:37;7.80;89.50
54178;DHT22;40085;53.004;6.770;2023-03-20T05:17:03;7.80;90.00
54178;DHT22;40085;53.004;6.770;2023-03-20T05:19:29;7.80;88.90
54178;DHT22;40085;53.004;6.770;2023-03-20T05:21:55;7.80;89.80
54178;DHT22;40085;53.004;6.770;2023-03-20T05:24:20;7.80;82.10
54178;DHT22;40085;53.004;6.770;2023-03-20T05:26:46;7.80;81.60
54178;DHT22;40085;53.004;6.770;2023-03-20T05:29:12;7.80;76.00
54178;DHT22;40085;53.004;6.770;2023-03-20T05:31:38;7.80;79.00
54178;DHT22;40085;53.004;6.770;2023-03-20T05:34:03;7.80;78.00
54178;DHT22;40085;53.004;6.770;2023-03-20T05:36:30;7.80;78.50
54178;DHT22;40085;53.004;6.770;2023-03-20T05:38:56;7.80;74.40
54178;DHT22;40085;53.004;6.770;2023-03-20T05:41:22;7.80;74.10
54178;DHT22;40085;53.004;6.770;2023-03-20T05:43:47;7.80;70.70
54178;DHT22;40085;53.004;6.770;2023-03-20T05:46:13;7.80;70.50
54178;DHT22;40085;53.004;6.770;2023-03-20T05:48:39;7.80;78.40
54178;DHT22;40085;53.004;6.770;2023-03-20T05:51:05;7.80;71.20
54178;DHT22;40085;53.004;6.770;2023-03-20T05:53:31;7.80;59.80
54178;DHT22;40085;53.004;6.770;2023-03-20T05:55:56;7.80;62.70
54178;DHT22;40085;53.004;6.770;2023-03-20T05:58:22;7.80;62.60
54178;DHT22;40085;53.004;6.770;2023-03-20T06:00:48;8.30;67.20
54178;DHT22;40085;53.004;6.770;2023-03-20T06:03:13;7.80;65.20
54178;DHT22;40085;53.004;6.770;2023-03-20T06:05:39;7.80;61.70
54178;DHT22;40085;53.004;6.770;2023-03-20T06:08:06;7.80;61.80
54178;DHT22;40085;53.004;6.770;2023-03-20T06:10:31;7.80;61.50
54178;DHT22;40085;53.004;6.770;2023-03-20T06:12:57;7.80;57.80
54178;DHT22;40085;53.004;6.770;2023-03-20T06:15:28;7.80;53.30
54178;DHT22;40085;53.004;6.770;2023-03-20T06:17:54;7.80;48.80
54178;DHT22;40085;53.004;6.770;2023-03-20T06:20:20;7.80;48.50
54178;DHT22;40085;53.004;6.770;2023-03-20T06:22:46;7.80;46.70
54178;DHT22;40085;53.004;6.770;2023-03-20T06:25:12;7.80;46.40
54178;DHT22;40085;53.004;6.770;2023-03-20T06:27:40;7.80;35.40
54178;DHT22;40085;53.004;6.770;2023-03-20T06:30:06;7.80;26.80
54178;DHT22;40085;53.004;6.770;2023-03-20T06:32:32;7.90;25.70
54178;DHT22;40085;53.004;6.770;2023-03-20T06:34:58;7.90;21.60
54178;DHT22;40085;53.004;6.770;2023-03-20T06:37:23;7.90;19.50
54178;DHT22;40085;53.004;6.770;2023-03-20T06:39:50;7.90;16.20
54178;DHT22;40085;53.004;6.770;2023-03-20T06:42:15;8.00;12.60
54178;DHT22;40085;53.004;6.770;2023-03-20T06:44:42;8.00;4.70
54178;DHT22;40085;53.004;6.770;2023-03-20T06:47:07;8.00;1.50
54178;DHT22;40085;53.004;6.770;2023-03-20T06:49:33;8.00;1.00
54178;DHT22;40085;53.004;6.770;2023-03-20T06:51:58;8.00;1.00
54178;DHT22;40085;53.004;6.770;2023-03-20T06:54:25;8.10;1.00
54178;DHT22;40085;53.004;6.770;2023-03-20T06:56:51;8.10;1.00
54178;DHT22;40085;53.004;6.770;2023-03-20T06:59:17;8.10;1.00
54178;DHT22;40085;53.004;6.770;2023-03-20T07:01:42;8.10;1.00
54178;DHT22;40085;53.004;6.770;2023-03-20T07:04:08;8.20;1.00
54178;DHT22;40085;53.004;6.770;2023-03-20T07:06:33;8.20;1.00
54178;DHT22;40085;53.004;6.770;2023-03-20T07:08:59;9.10;1.00
54178;DHT22;40085;53.004;6.770;2023-03-20T07:11:26;8.20;1.00
54178;DHT22;40085;53.004;6.770;2023-03-20T07:13:52;8.20;1.00
54178;DHT22;40085;53.004;6.770;2023-03-20T07:16:17;8.30;1.00
54178;DHT22;40085;53.004;6.770;2023-03-20T07:18:43;8.30;1.00
54178;DHT22;40085;53.004;6.770;2023-03-20T07:21:10;8.30;1.00
54178;DHT22;40085;53.004;6.770;2023-03-20T07:23:41;8.40;1.00
54178;DHT22;40085;53.004;6.770;2023-03-20T07:26:06;8.40;1.00
54178;DHT22;40085;53.004;6.770;2023-03-20T07:28:32;8.50;99.90
54178;DHT22;40085;53.004;6.770;2023-03-20T07:30:58;8.50;1.00
54178;DHT22;40085;53.004;6.770;2023-03-20T07:33:23;8.50;1.00
54178;DHT22;40085;53.004;6.770;2023-03-20T07:35:53;8.60;99.90
54178;DHT22;40085;53.004;6.770;2023-03-20T07:38:20;8.60;99.90
54178;DHT22;40085;53.004;6.770;2023-03-20T07:40:45;8.60;99.90
54178;DHT22;40085;53.004;6.770;2023-03-20T07:43:13;8.60;99.90
54178;DHT22;40085;53.004;6.770;2023-03-20T07:45:39;8.70;99.90
54178;DHT22;40085;53.004;6.770;2023-03-20T07:48:05;8.70;99.90
54178;DHT22;40085;53.004;6.770;2023-03-20T07:50:30;8.70;99.90
54178;DHT22;40085;53.004;6.770;2023-03-20T07:52:56;8.80;99.90
54178;DHT22;40085;53.004;6.770;2023-03-20T07:55:22;8.90;99.90
54178;DHT22;40085;53.004;6.770;2023-03-20T07:57:48;8.90;99.90
54178;DHT22;40085;53.004;6.770;2023-03-20T08:00:15;9.00;99.90
54178;DHT22;40085;53.004;6.770;2023-03-20T08:02:41;9.00;99.90
54178;DHT22;40085;53.004;6.770;2023-03-20T08:05:07;9.00;99.90
54178;DHT22;40085;53.004;6.770;2023-03-20T08:07:33;9.00;99.90
54178;DHT22;40085;53.004;6.770;2023-03-20T08:09:59;9.10;99.90
54178;DHT22;40085;53.004;6.770;2023-03-20T08:12:25;9.10;99.90
54178;DHT22;40085;53.004;6.770;2023-03-20T08:14:50;9.00;99.90
54178;DHT22;40085;53.004;6.770;2023-03-20T08:17:17;9.00;99.90
54178;DHT22;40085;53.004;6.770;2023-03-20T08:19:42;9.00;99.90
54178;DHT22;40085;53.004;6.770;2023-03-20T08:22:08;9.10;99.90
54178;DHT22;40085;53.004;6.770;2023-03-20T08:24:34;9.10;99.90
54178;DHT22;40085;53.004;6.770;2023-03-20T08:26:59;9.10;99.90
54178;DHT22;40085;53.004;6.770;2023-03-20T08:29:25;9.20;99.90
54178;DHT22;40085;53.004;6.770;2023-03-20T08:31:51;9.30;99.90
54178;DHT22;40085;53.004;6.770;2023-03-20T08:34:16;9.40;99.90
54178;DHT22;40085;53.004;6.770;2023-03-20T08:36:42;9.40;99.90
54178;DHT22;40085;53.004;6.770;2023-03-20T08:39:08;9.50;99.90
54178;DHT22;40085;53.004;6.770;2023-03-20T08:41:36;9.60;1.00
54178;DHT22;40085;53.004;6.770;2023-03-20T08:44:04;9.70;46.00
54178;DHT22;40085;53.004;6.770;2023-03-20T08:46:29;9.80;1.00
54178;DHT22;40085;53.004;6.770;2023-03-20T08:48:55;9.90;1.00
54178;DHT22;40085;53.004;6.770;2023-03-20T08:51:21;9.90;99.90
54178;DHT22;40085;53.004;6.770;2023-03-20T08:53:46;9.90;99.90
54178;DHT22;40085;53.004;6.770;2023-03-20T08:56:12;10.00;99.90
54178;DHT22;40085;53.004;6.770;2023-03-20T08:58:38;10.00;99.90
54178;DHT22;40085;53.004;6.770;2023-03-20T09:01:06;10.10;99.90
54178;DHT22;40085;53.004;6.770;2023-03-20T09:03:32;10.00;99.90
54178;DHT22;40085;53.004;6.770;2023-03-20T09:05:57;10.00;1.00
54178;DHT22;40085;53.004;6.770;2023-03-20T09:08:23;10.10;1.00
54178;DHT22;40085;53.004;6.770;2023-03-20T09:10:49;10.20;3.60
54178;DHT22;40085;53.004;6.770;2023-03-20T09:13:15;10.30;99.90
54178;DHT22;40085;53.004;6.770;2023-03-20T09:15:41;10.30;99.90
54178;DHT22;40085;53.004;6.770;2023-03-20T09:18:07;10.50;1.00
54178;DHT22;40085;53.004;6.770;2023-03-20T09:20:32;10.60;99.90
54178;DHT22;40085;53.004;6.770;2023-03-20T09:22:59;10.60;71.50
54178;DHT22;40085;53.004;6.770;2023-03-20T09:25:25;10.60;99.90
54178;DHT22;40085;53.004;6.770;2023-03-20T09:27:52;11.50;99.90
54178;DHT22;40085;53.004;6.770;2023-03-20T09:30:20;10.50;99.90
54178;DHT22;40085;53.004;6.770;2023-03-20T09:32:47;10.60;99.90
54178;DHT22;40085;53.004;6.770;2023-03-20T09:35:13;10.60;1.00
54178;DHT22;40085;53.004;6.770;2023-03-20T09:37:39;10.70;99.90
54178;DHT22;40085;53.004;6.770;2023-03-20T09:40:06;10.90;43.20
54178;DHT22;40085;53.004;6.770;2023-03-20T09:54:01;11.30;99.90
54178;DHT22;40085;53.004;6.770;2023-03-20T09:56:30;11.40;99.90
54178;DHT22;40085;53.004;6.770;2023-03-20T09:59:01;11.40;1.00
54178;DHT22;40085;53.004;6.770;2023-03-20T10:01:42;11.30;99.90
54178;DHT22;40085;53.004;6.770;2023-03-20T10:04:09;11.40;99.90
54178;DHT22;40085;53.004;6.770;2023-03-20T10:06:36;11.30;99.90
54178;DHT22;40085;53.004;6.770;2023-03-20T10:09:11;11.40;99.90
54178;DHT22;40085;53.004;6.770;2023-03-20T10:14:34;11.20;99.90
54178;DHT22;40085;53.004;6.770;2023-03-20T10:25:05;11.60;99.90
54178;DHT22;40085;53.004;6.770;2023-03-20T10:27:43;11.60;47.30
54178;DHT22;40085;53.004;6.770;2023-03-20T10:30:52;11.50;53.40
54178;DHT22;40085;53.004;6.770;2023-03-20T10:36:53;11.50;99.90
54178;DHT22;40085;53.004;6.770;2023-03-20T10:42:02;11.60;99.90
54178;DHT22;40085;53.004;6.770;2023-03-20T10:44:38;11.50;99.90
54178;DHT22;40085;53.004;6.770;2023-03-20T10:47:08;11.40;99.90
54178;DHT22;40085;53.004;6.770;2023-03-20T10:49:38;11.30;99.90
54178;DHT22;40085;53.004;6.770;2023-03-20T10:52:11;11.20;99.90
54178;DHT22;40085;53.004;6.770;2023-03-20T10:54:45;11.10;99.90
54178;DHT22;40085;53.004;6.770;2023-03-20T10:57:19;11.00;1.00
54178;DHT22;40085;53.004;6.770;2023-03-20T10:59:49;11.00;1.00
54178;DHT22;40085;53.004;6.770;2023-03-20T11:02:16;10.90;99.90
54178;DHT22;40085;53.004;6.770;2023-03-20T11:04:43;12.00;99.90
54178;DHT22;40085;53.004;6.770;2023-03-20T11:07:23;10.70;99.90
54178;DHT22;40085;53.004;6.770;2023-03-20T11:12:36;10.70;21.40
54178;DHT22;40085;53.004;6.770;2023-03-20T11:18:04;10.80;99.90
54178;DHT22;40085;53.004;6.770;2023-03-20T11:20:35;10.80;99.90
54178;DHT22;40085;53.004;6.770;2023-03-20T11:23:04;10.80;99.90
54178;DHT22;40085;53.004;6.770;2023-03-20T11:25:33;10.90;99.90
54178;DHT22;40085;53.004;6.770;2023-03-20T11:36:45;10.60;99.90
54178;DHT22;40085;53.004;6.770;2023-03-20T11:39:14;10.60;99.90
54178;DHT22;40085;53.004;6.770;2023-03-20T11:44:30;10.60;99.90
54178;DHT22;40085;53.004;6.770;2023-03-20T11:47:11;10.60;99.90
54178;DHT22;40085;53.004;6.770;2023-03-20T11:49:54;10.60;99.90
54178;DHT22;40085;53.004;6.770;2023-03-20T11:52:23;10.50;99.90
54178;DHT22;40085;53.004;6.770;2023-03-20T11:54:53;10.50;99.90
54178;DHT22;40085;53.004;6.770;2023-03-20T11:57:33;10.50;99.90
54178;DHT22;40085;53.004;6.770;2023-03-20T12:00:05;10.50;99.90
54178;DHT22;40085;53.004;6.770;2023-03-20T12:02:34;10.40;1.00
54178;DHT22;40085;53.004;6.770;2023-03-20T12:05:00;10.40;1.00
54178;DHT22;40085;53.004;6.770;2023-03-20T12:07:30;10.40;36.40
54178;DHT22;40085;53.004;6.770;2023-03-20T12:09:58;10.50;99.90
54178;DHT22;40085;53.004;6.770;2023-03-20T12:15:14;10.40;1.00
54178;DHT22;40085;53.004;6.770;2023-03-20T12:18:04;10.40;1.00
54178;DHT22;40085;53.004;6.770;2023-03-20T12:36:38;10.20;99.90
54178;DHT22;40085;53.004;6.770;2023-03-20T12:39:11;10.20;99.90
54178;DHT22;40085;53.004;6.770;2023-03-20T12:41:52;10.20;99.90
54178;DHT22;40085;53.004;6.770;2023-03-20T12:44:27;10.60;99.90
54178;DHT22;40085;53.004;6.770;2023-03-20T12:47:26;10.30;99.90
54178;DHT22;40085;53.004;6.770;2023-03-20T12:53:18;10.40;99.90
54178;DHT22;40085;53.004;6.770;2023-03-20T12:56:00;10.40;99.90
54178;DHT22;40085;53.004;6.770;2023-03-20T13:01:18;10.40;13.40
54178;DHT22;40085;53.004;6.770;2023-03-20T13:06:59;10.20;99.90
54178;DHT22;40085;53.004;6.770;2023-03-20T13:15:17;10.00;99.90
54178;DHT22;40085;53.004;6.770;2023-03-20T13:20:36;12.00;68.90
54178;DHT22;40085;53.004;6.770;2023-03-20T13:31:48;11.10;99.90
54178;DHT22;40085;53.004;6.770;2023-03-20T13:34:57;9.80;1.00
54178;DHT22;40085;53.004;6.770;2023-03-20T13:37:36;9.70;79.50
54178;DHT22;40085;53.004;6.770;2023-03-20T13:42:47;9.60;99.90
54178;DHT22;40085;53.004;6.770;2023-03-20T13:45:23;9.60;99.90
54178;DHT22;40085;53.004;6.770;2023-03-20T13:47:52;9.70;99.90
54178;DHT22;40085;53.004;6.770;2023-03-20T13:53:09;9.50;99.90
54178;DHT22;40085;53.004;6.770;2023-03-20T13:58:30;9.60;99.90
54178;DHT22;40085;53.004;6.770;2023-03-20T14:00:58;9.60;1.00
54178;DHT22;40085;53.004;6.770;2023-03-20T14:03:32;9.60;1.00
54178;DHT22;40085;53.004;6.770;2023-03-20T14:05:59;9.60;1.00
54178;DHT22;40085;53.004;6.770;2023-03-20T14:13:52;9.50;14.80
54178;DHT22;40085;53.004;6.770;2023-03-20T14:16:19;9.40;37.00
54178;DHT22;40085;53.004;6.770;2023-03-20T14:18:50;9.30;59.00
54178;DHT22;40085;53.004;6.770;2023-03-20T14:21:29;9.20;83.00
54178;DHT22;40085;53.004;6.770;2023-03-20T14:24:05;9.00;95.50
54178;DHT22;40085;53.004;6.770;2023-03-20T14:26:34;9.00;99.90
54178;DHT22;40085;53.004;6.770;2023-03-20T14:31:33;8.80;99.90
54178;DHT22;40085;53.004;6.770;2023-03-20T14:36:58;8.70;99.90
54178;DHT22;40085;53.004;6.770;2023-03-20T14:42:41;8.70;99.90
54178;DHT22;40085;53.004;6.770;2023-03-20T14:50:25;8.70;99.90
54178;DHT22;40085;53.004;6.770;2023-03-20T14:57:52;8.70;99.90
54178;DHT22;40085;53.004;6.770;2023-03-20T15:00:19;9.10;99.90
54178;DHT22;40085;53.004;6.770;2023-03-20T15:03:10;8.70;99.90
54178;DHT22;40085;53.004;6.770;2023-03-20T15:05:38;8.70;99.90
54178;DHT22;40085;53.004;6.770;2023-03-20T15:08:11;8.70;99.90
54178;DHT22;40085;53.004;6.770;2023-03-20T15:10:46;8.70;99.90
54178;DHT22;40085;53.004;6.770;2023-03-20T15:13:14;8.70;99.90
54178;DHT22;40085;53.004;6.770;2023-03-20T15:16:10;8.70;99.90
54178;DHT22;40085;53.004;6.770;2023-03-20T15:18:56;8.60;99.90
54178;DHT22;40085;53.004;6.770;2023-03-20T15:23:55;10.50;99.90
54178;DHT22;40085;53.004;6.770;2023-03-20T15:26:21;8.70;99.90
54178;DHT22;40085;53.004;6.770;2023-03-20T15:28:58;8.70;99.90
54178;DHT22;40085;53.004;6.770;2023-03-20T15:31:28;8.70;99.90
54178;DHT22;40085;53.004;6.770;2023-03-20T15:33:55;8.70;99.90
54178;DHT22;40085;53.004;6.770;2023-03-20T15:36:26;8.70;99.90
54178;DHT22;40085;53.004;6.770;2023-03-20T15:39:02;8.70;99.90
54178;DHT22;40085;53.004;6.770;2023-03-20T15:41:33;8.70;99.90
54178;DHT22;40085;53.004;6.770;2023-03-20T15:44:35;8.60;99.90
54178;DHT22;40085;53.004;6.770;2023-03-20T15:49:32;8.50;99.90
54178;DHT22;40085;53.004;6.770;2023-03-20T15:52:02;8.50;99.90
54178;DHT22;40085;53.004;6.770;2023-03-20T15:54:28;8.50;99.90
54178;DHT22;40085;53.004;6.770;2023-03-20T15:56:56;8.60;99.90
54178;DHT22;40085;53.004;6.770;2023-03-20T15:59:26;9.30;99.90
54178;DHT22;40085;53.004;6.770;2023-03-20T16:01:55;8.50;99.90
54178;DHT22;40085;53.004;6.770;2023-03-20T16:04:22;8.50;99.90
54178;DHT22;40085;53.004;6.770;2023-03-20T16:06:53;8.50;99.90
54178;DHT22;40085;53.004;6.770;2023-03-20T16:09:20;8.50;99.90
54178;DHT22;40085;53.004;6.770;2023-03-20T16:11:48;8.40;99.90
54178;DHT22;40085;53.004;6.770;2023-03-20T16:14:21;8.40;99.90
54178;DHT22;40085;53.004;6.770;2023-03-20T16:16:50;8.40;99.90
54178;DHT22;40085;53.004;6.770;2023-03-20T16:19:17;8.40;99.90
54178;DHT22;40085;53.004;6.770;2023-03-20T16:21:53;8.40;99.90
54178;DHT22;40085;53.004;6.770;2023-03-20T16:24:26;8.40;99.90
54178;DHT22;40085;53.004;6.770;2023-03-20T16:26:53;8.40;99.90
54178;DHT22;40085;53.004;6.770;2023-03-20T16:29:20;8.40;99.90
54178;DHT22;40085;53.004;6.770;2023-03-20T16:31:53;8.40;99.90
54178;DHT22;40085;53.004;6.770;2023-03-20T16:34:31;8.40;99.90
54178;DHT22;40085;53.004;6.770;2023-03-20T16:37:00;8.40;99.90
54178;DHT22;40085;53.004;6.770;2023-03-20T16:39:28;8.40;99.90
54178;DHT22;40085;53.004;6.770;2023-03-20T16:42:23;8.50;99.90
54178;DHT22;40085;53.004;6.770;2023-03-20T16:44:57;8.40;99.90
54178;DHT22;40085;53.004;6.770;2023-03-20T16:47:34;8.40;99.90
54178;DHT22;40085;53.004;6.770;2023-03-20T16:50:17;8.50;99.90
54178;DHT22;40085;53.004;6.770;2023-03-20T16:52:47;8.50;99.90
54178;DHT22;40085;53.004;6.770;2023-03-20T16:55:17;8.40;99.90
54178;DHT22;40085;53.004;6.770;2023-03-20T16:57:46;8.50;99.90
54178;DHT22;40085;53.004;6.770;2023-03-20T17:00:31;8.50;99.90
54178;DHT22;40085;53.004;6.770;2023-03-20T17:03:15;8.50;99.90
54178;DHT22;40085;53.004;6.770;2023-03-20T17:05:57;8.40;99.90
54178;DHT22;40085;53.004;6.770;2023-03-20T17:08:39;8.40;99.90
54178;DHT22;40085;53.004;6.770;2023-03-20T17:11:16;8.40;99.90
54178;DHT22;40085;53.004;6.770;2023-03-20T17:13:46;8.50;99.90
54178;DHT22;40085;53.004;6.770;2023-03-20T17:16:16;8.40;99.90
54178;DHT22;40085;53.004;6.770;2023-03-20T17:18:44;8.50;99.90
54178;DHT22;40085;53.004;6.770;2023-03-20T17:21:10;8.40;99.90
54178;DHT22;40085;53.004;6.770;2023-03-20T17:23:36;8.40;99.90
54178;DHT22;40085;53.004;6.770;2023-03-20T17:26:02;8.40;99.90
54178;DHT22;40085;53.004;6.770;2023-03-20T17:28:33;8.40;99.90
54178;DHT22;40085;53.004;6.770;2023-03-20T17:31:00;8.80;99.90
54178;DHT22;40085;53.004;6.770;2023-03-20T17:33:30;8.50;99.90
54178;DHT22;40085;53.004;6.770;2023-03-20T17:35:57;8.40;99.90
54178;DHT22;40085;53.004;6.770;2023-03-20T17:38:23;8.40;99.90
54178;DHT22;40085;53.004;6.770;2023-03-20T17:40:50;8.50;99.90
54178;DHT22;40085;53.004;6.770;2023-03-20T17:43:17;8.40;99.90
54178;DHT22;40085;53.004;6.770;2023-03-20T17:45:45;8.50;99.90
54178;DHT22;40085;53.004;6.770;2023-03-20T17:48:19;8.40;99.90
54178;DHT22;40085;53.004;6.770;2023-03-20T17:50:47;8.50;99.90
54178;DHT22;40085;53.004;6.770;2023-03-20T17:53:21;8.50;99.90
54178;DHT22;40085;53.004;6.770;2023-03-20T17:55:48;8.50;99.90
54178;DHT22;40085;53.004;6.770;2023-03-20T17:58:16;8.50;99.90
54178;DHT22;40085;53.004;6.770;2023-03-20T18:00:42;8.50;99.90
54178;DHT22;40085;53.004;6.770;2023-03-20T18:03:08;8.50;99.90
54178;DHT22;40085;53.004;6.770;2023-03-20T18:05:34;8.50;99.90
54178;DHT22;40085;53.004;6.770;2023-03-20T18:08:13;8.50;99.90
54178;DHT22;40085;53.004;6.770;2023-03-20T18:10:40;8.50;99.90
54178;DHT22;40085;53.004;6.770;2023-03-20T18:13:06;8.50;99.90
54178;DHT22;40085;53.004;6.770;2023-03-20T18:15:31;8.50;99.90
54178;DHT22;40085;53.004;6.770;2023-03-20T18:17:57;8.50;99.90
54178;DHT22;40085;53.004;6.770;2023-03-20T18:20:30;9.50;99.90
54178;DHT22;40085;53.004;6.770;2023-03-20T18:22:56;8.50;99.90
54178;DHT22;40085;53.004;6.770;2023-03-20T18:25:22;8.90;99.90
54178;DHT22;40085;53.004;6.770;2023-03-20T18:27:51;8.50;99.90
54178;DHT22;40085;53.004;6.770;2023-03-20T18:30:20;8.50;99.90
54178;DHT22;40085;53.004;6.770;2023-03-20T18:32:46;8.50;99.90
54178;DHT22;40085;53.004;6.770;2023-03-20T18:35:11;8.50;99.90
54178;DHT22;40085;53.004;6.770;2023-03-20T18:37:38;8.60;99.90
54178;DHT22;40085;53.004;6.770;2023-03-20T18:40:08;8.50;99.90
54178;DHT22;40085;53.004;6.770;2023-03-20T18:42:35;8.50;99.90